createdAt,value
2022-10-19T00:02:30.258Z,385.15
2022-10-19T00:05:01.510Z,393.75
2022-10-19T00:07:33.144Z,406.77
2022-10-19T00:10:04.415Z,394.40
2022-10-19T00:12:36.686Z,400.35
2022-10-19T00:15:11.511Z,396.98
2022-10-19T00:17:43.441Z,403.77
2022-10-19T00:20:15.891Z,418.25
2022-10-19T00:22:47.311Z,401.58
2022-10-19T00:25:18.641Z,398.17
2022-10-19T00:27:51.503Z,396.90
2022-10-19T00:30:25.921Z,399.40
2022-10-19T00:32:57.338Z,402.60
2022-10-19T00:35:28.516Z,389.63
2022-10-19T00:38:00.259Z,401.92
2022-10-19T00:40:31.459Z,394.30
2022-10-19T00:43:02.796Z,393.87
2022-10-19T00:45:36.849Z,388.65
2022-10-19T00:48:08.963Z,394.38
2022-10-19T00:50:40.627Z,393.17
2022-10-19T00:53:12.477Z,391.48
2022-10-19T00:55:44.750Z,395.17
2022-10-19T00:58:17.039Z,389.88
2022-10-19T01:00:50.888Z,393.42
2022-10-19T01:03:23.161Z,387.23
2022-10-19T01:05:55.415Z,388.38
2022-10-19T01:08:26.898Z,389.98
2022-10-19T01:11:11.581Z,389.83
2022-10-19T01:13:49.641Z,381.45
2022-10-19T01:16:34.553Z,384.52
2022-10-19T01:19:31.754Z,392.85
2022-10-19T01:22:13.074Z,381.60
2022-10-19T01:24:56.245Z,378.17
2022-10-19T01:27:44.914Z,388.20
2022-10-19T01:30:27.059Z,393.25
2022-10-19T01:33:12.129Z,375.20
2022-10-19T01:35:49.258Z,383.60
2022-10-19T01:38:28.152Z,381.17
2022-10-19T01:41:04.588Z,389.98
2022-10-19T01:43:43.126Z,381.60
2022-10-19T01:46:22.216Z,384.13
2022-10-19T01:48:59.569Z,389.52
2022-10-19T01:51:34.506Z,385.88
2022-10-19T01:54:12.103Z,388.63
2022-10-19T01:56:45.626Z,393.23
2022-10-19T01:59:20.415Z,393.20
2022-10-19T02:01:56.207Z,390.02
2022-10-19T02:04:28.694Z,387.50
2022-10-19T02:07:01.257Z,394.42
2022-10-19T02:09:32.505Z,390.65
2022-10-19T02:12:08.577Z,387.75
2022-10-19T02:14:44.033Z,396.88
2022-10-19T02:17:21.071Z,388.05
2022-10-19T02:19:52.215Z,389.70
2022-10-19T02:22:24.907Z,385.17
2022-10-19T02:24:56.170Z,383.30
2022-10-19T02:27:27.950Z,408.35
2022-10-19T02:29:59.623Z,393.00
2022-10-19T02:32:34.688Z,389.60
2022-10-19T02:35:06.515Z,396.30
2022-10-19T02:37:38.074Z,395.42
2022-10-19T02:40:10.537Z,388.20
2022-10-19T02:42:45.898Z,388.88
2022-10-19T02:45:22.533Z,393.20
2022-10-19T02:48:00.389Z,383.20
2022-10-19T02:50:32.206Z,397.85
2022-10-19T02:53:03.638Z,396.67
2022-10-19T02:55:34.847Z,397.48
2022-10-19T02:58:06.321Z,381.27
2022-10-19T03:00:37.670Z,379.90
2022-10-19T03:03:11.584Z,389.90
2022-10-19T03:05:42.894Z,395.15
2022-10-19T03:08:14.289Z,384.98
2022-10-19T03:10:45.552Z,390.73
2022-10-19T03:13:16.872Z,389.83
2022-10-19T03:15:48.239Z,387.70
2022-10-19T03:18:22.482Z,372.10
2022-10-19T03:20:53.618Z,379.77
2022-10-19T03:23:24.899Z,370.00
2022-10-19T03:25:56.095Z,374.35
2022-10-19T03:28:27.639Z,390.20
2022-10-19T03:30:58.760Z,379.45
2022-10-19T03:33:32.955Z,375.08
2022-10-19T03:36:18.290Z,374.05
2022-10-19T03:38:50.196Z,365.55
2022-10-19T03:41:25.302Z,378.10
2022-10-19T03:43:56.755Z,366.17
2022-10-19T03:46:27.888Z,378.45
2022-10-19T03:49:05.010Z,365.13
2022-10-19T03:51:36.634Z,372.25
2022-10-19T03:54:09.808Z,379.35
2022-10-19T03:56:41.258Z,364.13
2022-10-19T03:59:16.105Z,367.58
2022-10-19T04:01:48.995Z,375.40
2022-10-19T04:04:23.175Z,380.42
2022-10-19T04:06:54.526Z,369.83
2022-10-19T04:09:26.699Z,367.75
2022-10-19T04:11:57.879Z,371.20
2022-10-19T04:14:32.817Z,358.63
2022-10-19T04:17:04.741Z,362.80
2022-10-19T04:19:38.707Z,366.70
2022-10-19T04:22:09.916Z,349.77
2022-10-19T04:24:41.299Z,372.20
2022-10-19T04:27:12.585Z,344.55
2022-10-19T04:29:43.901Z,350.97
2022-10-19T04:32:15.085Z,358.08
2022-10-19T04:34:49.316Z,355.52
2022-10-19T04:37:20.429Z,358.08
2022-10-19T04:39:51.868Z,350.40
2022-10-19T04:42:23.036Z,364.05
2022-10-19T04:44:54.448Z,363.87
2022-10-19T04:47:25.621Z,346.50
2022-10-19T04:49:59.531Z,356.43
2022-10-19T04:52:31.352Z,355.52
2022-10-19T04:55:02.709Z,358.42
2022-10-19T04:57:34.118Z,346.48
2022-10-19T05:00:06.315Z,353.67
2022-10-19T05:02:37.688Z,346.25
2022-10-19T05:05:12.532Z,352.20
2022-10-19T05:07:43.698Z,359.48
2022-10-19T05:10:15.377Z,350.10
2022-10-19T05:12:46.491Z,337.10
2022-10-19T05:15:18.033Z,341.10
2022-10-19T05:17:49.197Z,356.98
2022-10-19T05:20:23.218Z,343.97
2022-10-19T05:22:54.529Z,350.33
2022-10-19T05:25:25.967Z,351.17
2022-10-19T05:27:57.122Z,353.25
2022-10-19T05:30:28.551Z,334.60
2022-10-19T05:32:59.741Z,355.25
2022-10-19T05:35:33.732Z,348.20
2022-10-19T05:38:04.912Z,337.08
2022-10-19T05:40:36.315Z,345.93
2022-10-19T05:43:07.378Z,342.35
2022-10-19T05:45:38.910Z,347.27
2022-10-19T05:48:10.348Z,331.90
2022-10-19T05:50:44.349Z,333.58
2022-10-19T05:53:15.413Z,340.33
2022-10-19T05:55:47.306Z,341.90
2022-10-19T05:58:18.460Z,338.40
2022-10-19T06:00:54.577Z,330.73
2022-10-19T06:03:26.374Z,343.70
2022-10-19T06:06:00.859Z,340.90
2022-10-19T06:08:32.598Z,346.90
2022-10-19T06:11:11.326Z,340.73
2022-10-19T06:13:44.383Z,330.88
2022-10-19T06:16:17.351Z,355.23
2022-10-19T06:18:48.870Z,350.35
2022-10-19T06:21:25.208Z,345.42
2022-10-19T06:23:57.653Z,345.17
2022-10-19T06:26:29.796Z,334.65
2022-10-19T06:29:02.798Z,348.95
2022-10-19T06:31:35.811Z,345.23
2022-10-19T06:34:07.487Z,345.73
2022-10-19T06:36:41.487Z,352.08
2022-10-19T06:39:13.107Z,351.20
2022-10-19T06:41:44.478Z,348.92
2022-10-19T06:44:24.895Z,347.90
2022-10-19T06:46:56.238Z,344.05
2022-10-19T06:49:27.370Z,343.48
2022-10-19T06:52:01.390Z,349.90
2022-10-19T06:54:32.843Z,346.27
2022-10-19T06:57:04.255Z,347.02
2022-10-19T06:59:35.411Z,338.77
2022-10-19T07:02:07.452Z,346.83
2022-10-19T07:04:38.675Z,353.50
2022-10-19T07:07:12.716Z,346.35
2022-10-19T07:09:43.946Z,348.92
2022-10-19T07:12:15.525Z,360.02
2022-10-19T07:14:46.730Z,355.83
2022-10-19T07:17:18.212Z,364.90
2022-10-19T07:19:49.416Z,359.27
2022-10-19T07:22:27.939Z,354.40
2022-10-19T07:24:59.297Z,362.42
2022-10-19T07:27:35.270Z,356.40
2022-10-19T07:30:10.156Z,346.33
2022-10-19T07:32:45.965Z,351.58
2022-10-19T07:35:18.424Z,346.92
2022-10-19T07:37:52.503Z,355.10
2022-10-19T07:40:23.988Z,357.20
2022-10-19T07:42:55.380Z,353.85
2022-10-19T07:45:26.584Z,344.05
2022-10-19T07:47:58.031Z,371.05
2022-10-19T07:50:29.844Z,367.10
2022-10-19T07:53:05.419Z,373.30
2022-10-19T07:55:37.376Z,372.90
2022-10-19T08:06:07.395Z,337.75
2022-10-19T08:08:45.112Z,343.20
2022-10-19T08:11:19.112Z,349.23
2022-10-19T08:13:51.294Z,353.25
2022-10-19T08:16:28.305Z,347.67
2022-10-19T08:19:01.376Z,345.40
2022-10-19T08:21:33.593Z,358.67
2022-10-19T08:24:08.536Z,346.88
2022-10-19T08:26:41.895Z,343.23
2022-10-19T08:29:16.101Z,349.83
2022-10-19T08:31:48.991Z,355.77
2022-10-19T08:34:20.951Z,355.92
2022-10-19T08:36:52.163Z,351.67
2022-10-19T08:39:26.229Z,352.70
2022-10-19T08:42:04.295Z,350.40
2022-10-19T08:45:14.165Z,349.92
2022-10-19T08:48:03.460Z,350.80
2022-10-19T08:50:40.779Z,352.17
2022-10-19T08:53:19.477Z,360.40
2022-10-19T08:56:06.469Z,350.02
2022-10-19T08:58:51.978Z,354.00
2022-10-19T09:01:37.733Z,353.73
2022-10-19T09:04:15.563Z,346.52
2022-10-19T09:06:57.731Z,348.98
2022-10-19T09:09:30.139Z,349.95
2022-10-19T09:12:07.331Z,349.45
2022-10-19T09:14:48.656Z,346.13
2022-10-19T09:17:20.160Z,354.53
2022-10-19T09:19:51.395Z,354.92
2022-10-19T09:22:26.423Z,358.48
2022-10-19T09:25:02.037Z,347.00
2022-10-19T09:27:39.726Z,349.48
2022-10-19T09:30:19.893Z,351.98
2022-10-19T09:32:54.685Z,354.15
2022-10-19T09:35:31.791Z,360.25
2022-10-19T09:38:04.073Z,355.95
2022-10-19T09:40:36.764Z,349.65
2022-10-19T09:43:20.195Z,356.33
2022-10-19T09:45:55.499Z,361.63
2022-10-19T09:48:33.920Z,361.67
2022-10-19T09:51:14.744Z,358.00
2022-10-19T09:53:48.414Z,348.63
2022-10-19T09:56:23.013Z,357.90
2022-10-19T09:58:58.865Z,364.27
2022-10-19T10:01:41.783Z,336.95
2022-10-19T10:04:19.074Z,356.50
2022-10-19T10:06:51.306Z,345.75
2022-10-19T10:09:27.453Z,360.67
2022-10-19T10:12:02.022Z,339.38
2022-10-19T10:14:39.921Z,352.27
2022-10-19T10:17:19.067Z,342.80
2022-10-19T10:20:05.940Z,336.77
2022-10-19T10:22:39.335Z,345.85
2022-10-19T10:25:19.294Z,348.90
2022-10-19T10:27:59.582Z,344.73
2022-10-19T10:30:38.639Z,356.48
2022-10-19T10:33:26.380Z,356.73
2022-10-19T10:36:04.256Z,352.23
2022-10-19T10:38:38.284Z,357.83
2022-10-19T10:41:15.290Z,339.88
2022-10-19T10:43:57.593Z,344.83
2022-10-19T10:46:39.775Z,346.85
2022-10-19T10:49:19.885Z,355.98
2022-10-19T10:51:53.847Z,339.67
2022-10-19T10:54:26.951Z,351.52
2022-10-19T10:57:16.860Z,353.42
2022-10-19T10:59:56.584Z,340.70
2022-10-19T11:02:39.539Z,346.52
2022-10-19T11:05:16.370Z,352.33
2022-10-19T11:07:50.499Z,342.65
2022-10-19T11:10:29.615Z,348.92
2022-10-19T11:13:08.212Z,358.73
2022-10-19T11:15:47.709Z,357.13
2022-10-19T11:18:25.986Z,353.25
2022-10-19T11:21:04.956Z,362.17
2022-10-19T11:23:50.895Z,364.05
2022-10-19T11:26:42.202Z,361.05
2022-10-19T11:29:37.663Z,368.17
2022-10-19T11:32:22.212Z,365.25
2022-10-19T11:35:13.870Z,353.15
2022-10-19T11:38:17.295Z,351.58
2022-10-19T11:41:16.455Z,363.73
2022-10-19T11:43:48.188Z,367.05
2022-10-19T11:46:28.071Z,368.88
2022-10-19T11:49:17.808Z,357.00
2022-10-19T11:51:57.695Z,353.67
2022-10-19T11:54:41.646Z,351.20
2022-10-19T11:57:19.181Z,349.75
2022-10-19T12:00:13.745Z,351.33
2022-10-19T12:03:22.787Z,367.33
2022-10-19T12:06:09.525Z,346.98
2022-10-19T12:09:00.512Z,358.50
2022-10-19T12:11:52.309Z,348.73
2022-10-19T12:14:27.442Z,360.00
2022-10-19T12:17:03.500Z,357.27
2022-10-19T12:19:39.509Z,371.80
2022-10-19T12:22:17.678Z,351.77
2022-10-19T12:24:53.397Z,362.00
2022-10-19T12:27:31.123Z,367.85
2022-10-19T12:30:09.412Z,354.25
2022-10-19T12:33:10.936Z,364.17
2022-10-19T12:36:02.078Z,362.33
2022-10-19T12:38:50.811Z,367.42
2022-10-19T12:41:32.061Z,362.90
2022-10-19T12:44:15.545Z,353.42
2022-10-19T12:46:53.847Z,373.00
2022-10-19T12:49:49.562Z,350.90
2022-10-19T12:52:39.184Z,358.73
2022-10-19T12:55:35.128Z,369.77
2022-10-19T12:58:22.989Z,363.20
2022-10-19T13:01:02.368Z,361.73
2022-10-19T13:03:38.233Z,364.83
2022-10-19T13:06:14.237Z,373.10
2022-10-19T13:08:49.520Z,366.08
2022-10-19T13:11:20.685Z,372.15
2022-10-19T13:14:09.982Z,382.03
2022-10-19T13:17:04.849Z,368.48
2022-10-19T13:19:36.317Z,364.13
2022-10-19T13:22:29.527Z,367.13
2022-10-19T13:25:24.260Z,368.23
2022-10-19T13:27:56.261Z,360.13
2022-10-19T13:33:47.474Z,351.55
2022-10-19T13:36:19.360Z,349.23
2022-10-19T13:39:06.444Z,370.38
2022-10-19T13:41:53.271Z,355.65
2022-10-19T13:44:28.271Z,355.15
2022-10-19T13:47:20.415Z,359.38
2022-10-19T13:50:15.628Z,354.35
2022-10-19T13:53:09.308Z,357.85
2022-10-19T13:56:06.186Z,357.42
2022-10-19T13:59:08.170Z,361.27
2022-10-19T14:01:58.295Z,356.33
2022-10-19T14:04:39.500Z,346.65
2022-10-19T14:07:18.913Z,354.65
2022-10-19T14:10:08.404Z,355.05
2022-10-19T14:12:43.854Z,355.63
2022-10-19T14:15:28.111Z,352.85
2022-10-19T14:18:03.723Z,354.88
2022-10-19T14:20:39.387Z,361.58
2022-10-19T14:23:26.563Z,362.98
2022-10-19T14:26:00.829Z,354.77
2022-10-19T14:28:32.798Z,348.25
2022-10-19T14:31:07.084Z,357.85
2022-10-19T14:33:40.775Z,349.60
2022-10-19T14:36:20.567Z,356.25
2022-10-19T14:38:58.768Z,356.05
2022-10-19T14:41:36.188Z,362.45
2022-10-19T14:44:40.632Z,354.55
2022-10-19T14:47:24.135Z,356.02
2022-10-19T14:49:55.348Z,353.23
2022-10-19T14:52:31.993Z,351.00
2022-10-19T14:55:14.064Z,346.08
2022-10-19T14:57:51.353Z,349.00
2022-10-19T15:03:23.527Z,353.85
2022-10-19T15:05:59.775Z,344.98
2022-10-19T15:08:37.584Z,345.48
2022-10-19T15:11:24.922Z,347.25
2022-10-19T15:14:06.338Z,347.63
2022-10-19T15:16:46.520Z,346.40
2022-10-19T15:19:27.979Z,355.58
2022-10-19T15:22:19.197Z,353.70
2022-10-19T15:25:22.391Z,358.40
2022-10-19T15:30:31.969Z,329.75
2022-10-19T15:33:16.868Z,341.40
2022-10-19T15:35:49.547Z,341.98
2022-10-19T15:40:59.758Z,320.83
2022-10-19T15:43:48.539Z,326.70
2022-10-19T15:46:29.124Z,328.80
2022-10-19T15:49:05.683Z,333.02
2022-10-19T15:51:48.086Z,339.33
2022-10-19T15:54:21.298Z,329.95
2022-10-19T15:56:56.652Z,335.00
2022-10-19T15:59:30.550Z,337.13
2022-10-19T16:02:02.181Z,345.52
2022-10-19T16:04:34.685Z,343.15
2022-10-19T16:07:06.185Z,343.60
2022-10-19T16:09:37.662Z,337.42
2022-10-19T16:12:09.190Z,337.65
2022-10-19T16:14:42.979Z,338.80
2022-10-19T16:17:16.751Z,339.30
2022-10-19T16:19:48.408Z,339.48
2022-10-19T16:22:20.375Z,331.00
2022-10-19T16:24:51.747Z,329.67
2022-10-19T16:27:23.260Z,323.52
2022-10-19T16:29:57.355Z,326.90
2022-10-19T16:32:29.266Z,336.27
2022-10-19T16:35:00.983Z,332.05
2022-10-19T16:37:33.372Z,332.13
2022-10-19T16:40:05.433Z,328.38
2022-10-19T16:42:38.176Z,325.98
2022-10-19T16:45:13.958Z,328.85
2022-10-19T16:47:46.205Z,331.88
2022-10-19T16:50:17.755Z,330.95
2022-10-19T16:52:49.591Z,328.98
2022-10-19T16:55:21.379Z,336.50
2022-10-19T16:57:53.675Z,323.75
2022-10-19T17:00:28.276Z,325.88
2022-10-19T17:03:00.301Z,324.63
2022-10-19T17:05:31.523Z,322.23
2022-10-19T17:08:05.373Z,333.10
2022-10-19T17:10:36.837Z,324.80
2022-10-19T17:13:08.463Z,323.95
2022-10-19T17:15:43.553Z,319.45
2022-10-19T17:18:15.339Z,318.13
2022-10-19T17:20:46.585Z,311.45
2022-10-19T17:23:18.050Z,324.50
2022-10-19T17:25:52.624Z,323.75
2022-10-19T17:28:27.569Z,324.88
2022-10-19T17:31:06.664Z,319.20
2022-10-19T17:33:39.290Z,324.42
2022-10-19T17:36:12.332Z,316.13
2022-10-19T17:38:44.492Z,330.13
2022-10-19T17:41:18.025Z,322.90
2022-10-19T17:43:51.884Z,324.95
2022-10-19T17:46:28.687Z,326.90
2022-10-19T17:49:01.312Z,319.77
2022-10-19T17:54:07.774Z,313.90
2022-10-19T17:56:41.236Z,315.25
2022-10-19T17:59:13.702Z,325.40
2022-10-19T18:01:47.789Z,319.33
2022-10-19T18:04:19.625Z,325.33
2022-10-19T18:06:51.461Z,337.20
2022-10-19T18:09:23.161Z,334.00
2022-10-19T18:11:54.416Z,321.02
2022-10-19T18:14:26.023Z,340.37
2022-10-19T18:17:00.169Z,319.20
2022-10-19T18:19:31.931Z,332.45
2022-10-19T18:22:03.321Z,335.63
2022-10-19T18:24:34.980Z,335.92
2022-10-19T18:27:06.329Z,320.90
2022-10-19T18:29:38.250Z,322.98
2022-10-19T18:32:12.691Z,327.83
2022-10-19T18:34:44.453Z,337.08
2022-10-19T18:37:16.202Z,325.10
2022-10-19T18:42:19.639Z,303.35
2022-10-19T18:44:54.012Z,318.70
2022-10-19T18:47:29.939Z,327.70
2022-10-19T18:50:02.170Z,320.08
2022-10-19T18:52:36.440Z,321.85
2022-10-19T18:55:09.780Z,332.15
2022-10-19T18:57:41.325Z,314.08
2022-10-19T19:00:14.501Z,321.70
2022-10-19T19:02:55.148Z,322.73
2022-10-19T19:05:26.894Z,321.73
2022-10-19T19:07:58.407Z,316.07
2022-10-19T19:10:30.493Z,323.63
2022-10-19T19:13:02.154Z,325.77
2022-10-19T19:15:34.368Z,321.88
2022-10-19T19:18:09.064Z,320.02
2022-10-19T19:20:43.615Z,321.23
2022-10-19T19:23:15.221Z,323.02
2022-10-19T19:25:46.852Z,317.73
2022-10-19T19:28:18.341Z,323.67
2022-10-19T19:30:50.629Z,321.73
2022-10-19T19:33:25.129Z,324.98
2022-10-19T19:35:56.846Z,314.30
2022-10-19T19:38:28.570Z,313.87
2022-10-19T19:41:00.413Z,326.58
2022-10-19T19:43:33.890Z,320.47
2022-10-19T19:46:09.608Z,305.38
2022-10-19T19:48:45.383Z,301.77
2022-10-19T19:51:19.842Z,306.67
2022-10-19T19:53:51.452Z,317.35
2022-10-19T19:56:23.438Z,304.75
2022-10-19T19:58:58.746Z,315.27
2022-10-19T20:01:30.603Z,304.80
2022-10-19T20:04:05.181Z,297.33
2022-10-19T20:06:38.437Z,299.73
2022-10-19T20:09:11.986Z,300.98
2022-10-19T20:11:43.979Z,292.45
2022-10-19T20:14:15.625Z,293.67
2022-10-19T20:16:47.328Z,289.98
2022-10-19T20:19:21.469Z,300.83
2022-10-19T20:21:53.109Z,292.75
2022-10-19T20:24:24.524Z,287.80
2022-10-19T20:26:57.209Z,284.60
2022-10-19T20:32:00.253Z,266.00
2022-10-19T20:34:34.166Z,276.73
2022-10-19T20:37:05.797Z,280.05
2022-10-19T20:39:37.062Z,274.23
2022-10-19T20:42:08.779Z,275.90
2022-10-19T20:44:40.048Z,266.33
2022-10-19T20:47:11.555Z,283.43
2022-10-19T20:49:45.528Z,269.90
2022-10-19T20:52:16.975Z,279.90
2022-10-19T20:54:48.620Z,272.08
2022-10-19T20:59:52.517Z,264.98
2022-10-19T21:02:24.236Z,270.63
2022-10-19T21:04:58.330Z,274.65
2022-10-19T21:07:30.078Z,270.83
2022-10-19T21:10:01.391Z,258.98
2022-10-19T21:12:33.092Z,273.42
2022-10-19T21:15:04.874Z,266.35
2022-10-19T21:17:36.479Z,268.52
2022-10-19T21:20:11.730Z,278.20
2022-10-19T21:22:43.456Z,281.25
2022-10-19T21:25:15.225Z,263.25
2022-10-19T21:27:46.906Z,264.15
2022-10-19T21:30:18.206Z,265.27
2022-10-19T21:32:51.021Z,264.80
2022-10-19T21:37:56.303Z,252.20
2022-10-19T21:40:27.733Z,265.10
2022-10-19T21:42:59.260Z,255.27
2022-10-19T21:45:30.975Z,260.08
2022-10-19T21:48:02.737Z,256.08
2022-10-19T21:50:36.447Z,270.65
2022-10-19T21:53:07.863Z,266.13
2022-10-19T21:55:39.515Z,256.25
2022-10-19T21:58:11.121Z,244.10
2022-10-19T22:00:42.424Z,246.18
2022-10-19T22:06:07.854Z,245.20
2022-10-19T22:08:39.591Z,246.77
2022-10-19T22:11:12.382Z,239.48
2022-10-19T22:13:44.859Z,237.50
2022-10-19T22:16:19.065Z,245.55
2022-10-19T22:18:51.519Z,233.15
2022-10-19T22:21:28.060Z,234.55
2022-10-19T22:24:02.193Z,233.68
2022-10-19T22:26:35.689Z,228.95
2022-10-19T22:29:08.767Z,224.13
2022-10-19T22:31:40.312Z,222.23
2022-10-19T22:34:13.778Z,222.27
2022-10-19T22:36:48.302Z,232.73
2022-10-19T22:39:19.798Z,222.43
2022-10-19T22:41:51.231Z,217.73
2022-10-19T22:44:22.651Z,225.93
2022-10-19T22:46:53.733Z,215.25
2022-10-19T22:49:25.263Z,221.25
2022-10-19T22:51:59.041Z,216.93
2022-10-19T22:54:30.618Z,216.60
2022-10-19T22:57:01.698Z,213.73
2022-10-19T22:59:33.344Z,219.75
2022-10-19T23:02:04.522Z,206.65
2022-10-19T23:04:36.204Z,220.67
2022-10-19T23:10:01.205Z,203.68
2022-10-19T23:12:32.680Z,214.85
2022-10-19T23:15:04.064Z,215.43
2022-10-19T23:17:35.403Z,208.95
2022-10-19T23:20:07.700Z,208.75
2022-10-19T23:22:41.452Z,210.68
2022-10-19T23:25:13.000Z,216.80
2022-10-19T23:27:44.301Z,214.32
2022-10-19T23:30:15.706Z,223.45
2022-10-19T23:32:46.860Z,210.10
2022-10-19T23:35:18.336Z,213.45
2022-10-19T23:37:52.070Z,209.18
2022-10-19T23:40:23.552Z,207.40
2022-10-19T23:42:54.603Z,207.90
2022-10-19T23:45:25.971Z,207.60
2022-10-19T23:47:57.097Z,209.88
2022-10-19T23:50:28.474Z,200.60
2022-10-19T23:53:02.331Z,208.18
2022-10-19T23:55:33.697Z,198.93
2022-10-19T23:58:04.789Z,214.57
